sensor_id;sensor_type;location;lat;lon;timestamp;temperature;humidity
30234;DHT22;17046;52.074;4.748;2022-07-24T00:00:06;18.70;4.90
30234;DHT22;17046;52.074;4.748;2022-07-24T00:02:33;18.70;1.00
30234;DHT22;17046;52.074;4.748;2022-07-24T00:04:58;18.70;1.00
30234;DHT22;17046;52.074;4.748;2022-07-24T00:07:25;18.70;1.00
30234;DHT22;17046;52.074;4.748;2022-07-24T00:09:51;18.70;1.00
30234;DHT22;17046;52.074;4.748;2022-07-24T00:12:16;18.70;1.00
30234;DHT22;17046;52.074;4.748;2022-07-24T00:14:42;18.60;1.00
30234;DHT22;17046;52.074;4.748;2022-07-24T00:17:07;18.50;1.00
30234;DHT22;17046;52.074;4.748;2022-07-24T00:19:33;18.50;1.00
30234;DHT22;17046;52.074;4.748;2022-07-24T00:21:59;18.40;6.20
30234;DHT22;17046;52.074;4.748;2022-07-24T00:24:25;18.30;14.00
30234;DHT22;17046;52.074;4.748;2022-07-24T00:26:51;18.30;19.60
30234;DHT22;17046;52.074;4.748;2022-07-24T00:29:16;18.20;25.90
30234;DHT22;17046;52.074;4.748;2022-07-24T00:31:42;18.10;31.50
30234;DHT22;17046;52.074;4.748;2022-07-24T00:34:08;18.10;38.10
30234;DHT22;17046;52.074;4.748;2022-07-24T00:36:33;18.00;42.00
30234;DHT22;17046;52.074;4.748;2022-07-24T00:38:59;17.90;46.80
30234;DHT22;17046;52.074;4.748;2022-07-24T00:41:25;17.90;50.40
30234;DHT22;17046;52.074;4.748;2022-07-24T00:46:31;17.90;56.20
30234;DHT22;17046;52.074;4.748;2022-07-24T00:48:56;17.90;57.10
30234;DHT22;17046;52.074;4.748;2022-07-24T00:51:22;17.90;56.50
30234;DHT22;17046;52.074;4.748;2022-07-24T00:53:48;17.90;55.60
30234;DHT22;17046;52.074;4.748;2022-07-24T00:56:14;17.90;54.00
30234;DHT22;17046;52.074;4.748;2022-07-24T00:58:40;17.90;54.70
30234;DHT22;17046;52.074;4.748;2022-07-24T01:01:05;17.90;53.90
30234;DHT22;17046;52.074;4.748;2022-07-24T01:03:31;17.90;49.20
30234;DHT22;17046;52.074;4.748;2022-07-24T01:05:57;17.90;44.30
30234;DHT22;17046;52.074;4.748;2022-07-24T01:08:23;17.90;42.70
30234;DHT22;17046;52.074;4.748;2022-07-24T01:10:49;17.80;37.90
30234;DHT22;17046;52.074;4.748;2022-07-24T01:13:15;17.80;37.60
30234;DHT22;17046;52.074;4.748;2022-07-24T01:15:41;17.80;35.80
30234;DHT22;17046;52.074;4.748;2022-07-24T01:18:06;17.80;35.10
30234;DHT22;17046;52.074;4.748;2022-07-24T01:20:37;17.80;33.80
30234;DHT22;17046;52.074;4.748;2022-07-24T01:23:03;17.80;36.50
30234;DHT22;17046;52.074;4.748;2022-07-24T01:25:29;17.70;33.20
30234;DHT22;17046;52.074;4.748;2022-07-24T01:27:54;17.70;30.60
30234;DHT22;17046;52.074;4.748;2022-07-24T01:30:20;17.70;28.50
30234;DHT22;17046;52.074;4.748;2022-07-24T01:32:45;17.80;27.50
30234;DHT22;17046;52.074;4.748;2022-07-24T01:35:11;17.80;25.20
30234;DHT22;17046;52.074;4.748;2022-07-24T01:37:37;17.80;21.30
30234;DHT22;17046;52.074;4.748;2022-07-24T01:40:03;17.80;17.10
30234;DHT22;17046;52.074;4.748;2022-07-24T01:42:29;17.80;11.90
30234;DHT22;17046;52.074;4.748;2022-07-24T01:44:54;17.80;7.90
30234;DHT22;17046;52.074;4.748;2022-07-24T01:47:20;17.80;6.20
30234;DHT22;17046;52.074;4.748;2022-07-24T01:49:45;17.80;6.00
30234;DHT22;17046;52.074;4.748;2022-07-24T01:52:11;17.80;1.00
30234;DHT22;17046;52.074;4.748;2022-07-24T01:54:36;17.90;1.00
30234;DHT22;17046;52.074;4.748;2022-07-24T01:57:02;18.00;1.00
30234;DHT22;17046;52.074;4.748;2022-07-24T01:59:28;18.00;1.00
30234;DHT22;17046;52.074;4.748;2022-07-24T02:01:53;18.10;1.00
30234;DHT22;17046;52.074;4.748;2022-07-24T02:04:19;18.10;1.00
30234;DHT22;17046;52.074;4.748;2022-07-24T02:06:44;18.00;1.00
30234;DHT22;17046;52.074;4.748;2022-07-24T02:09:10;18.00;1.00
30234;DHT22;17046;52.074;4.748;2022-07-24T02:11:35;18.00;1.00
30234;DHT22;17046;52.074;4.748;2022-07-24T02:14:01;18.00;1.00
30234;DHT22;17046;52.074;4.748;2022-07-24T02:16:27;18.00;1.00
30234;DHT22;17046;52.074;4.748;2022-07-24T02:18:52;17.90;1.00
30234;DHT22;17046;52.074;4.748;2022-07-24T02:21:18;17.90;1.00
30234;DHT22;17046;52.074;4.748;2022-07-24T02:23:44;17.90;1.00
30234;DHT22;17046;52.074;4.748;2022-07-24T02:26:09;17.90;1.00
30234;DHT22;17046;52.074;4.748;2022-07-24T02:28:35;18.00;1.00
30234;DHT22;17046;52.074;4.748;2022-07-24T02:31:00;18.00;1.00
30234;DHT22;17046;52.074;4.748;2022-07-24T02:33:26;18.00;1.00
30234;DHT22;17046;52.074;4.748;2022-07-24T02:35:51;18.00;1.00
30234;DHT22;17046;52.074;4.748;2022-07-24T02:38:17;18.00;1.00
30234;DHT22;17046;52.074;4.748;2022-07-24T02:40:43;17.90;1.00
30234;DHT22;17046;52.074;4.748;2022-07-24T02:43:08;17.90;1.00
30234;DHT22;17046;52.074;4.748;2022-07-24T02:45:34;17.90;1.00
30234;DHT22;17046;52.074;4.748;2022-07-24T02:47:59;17.90;1.00
30234;DHT22;17046;52.074;4.748;2022-07-24T02:50:33;17.90;1.00
30234;DHT22;17046;52.074;4.748;2022-07-24T02:53:01;17.90;1.00
30234;DHT22;17046;52.074;4.748;2022-07-24T02:55:26;17.80;1.00
30234;DHT22;17046;52.074;4.748;2022-07-24T02:57:54;17.80;1.00
30234;DHT22;17046;52.074;4.748;2022-07-24T03:00:20;17.70;1.00
30234;DHT22;17046;52.074;4.748;2022-07-24T03:02:45;17.80;1.00
30234;DHT22;17046;52.074;4.748;2022-07-24T03:05:11;17.80;1.00
30234;DHT22;17046;52.074;4.748;2022-07-24T03:07:37;17.80;1.00
30234;DHT22;17046;52.074;4.748;2022-07-24T03:10:05;17.80;1.00
30234;DHT22;17046;52.074;4.748;2022-07-24T03:12:31;17.80;1.00
30234;DHT22;17046;52.074;4.748;2022-07-24T03:14:56;17.80;1.00
30234;DHT22;17046;52.074;4.748;2022-07-24T03:17:22;17.80;1.00
30234;DHT22;17046;52.074;4.748;2022-07-24T03:19:47;17.80;1.00
30234;DHT22;17046;52.074;4.748;2022-07-24T03:22:13;17.80;1.00
30234;DHT22;17046;52.074;4.748;2022-07-24T03:24:38;17.80;1.00
30234;DHT22;17046;52.074;4.748;2022-07-24T03:27:04;17.80;1.00
30234;DHT22;17046;52.074;4.748;2022-07-24T03:29:29;17.70;1.00
30234;DHT22;17046;52.074;4.748;2022-07-24T03:31:55;17.80;1.00
30234;DHT22;17046;52.074;4.748;2022-07-24T03:34:20;17.70;1.00
30234;DHT22;17046;52.074;4.748;2022-07-24T03:36:46;17.80;1.00
30234;DHT22;17046;52.074;4.748;2022-07-24T03:39:12;17.70;1.00
30234;DHT22;17046;52.074;4.748;2022-07-24T03:41:37;17.70;1.00
30234;DHT22;17046;52.074;4.748;2022-07-24T03:44:03;17.70;1.00
30234;DHT22;17046;52.074;4.748;2022-07-24T03:46:29;17.60;1.00
30234;DHT22;17046;52.074;4.748;2022-07-24T03:48:55;17.70;1.00
30234;DHT22;17046;52.074;4.748;2022-07-24T03:51:21;17.70;1.00
30234;DHT22;17046;52.074;4.748;2022-07-24T03:53:48;17.70;1.00
30234;DHT22;17046;52.074;4.748;2022-07-24T03:56:14;17.60;1.00
30234;DHT22;17046;52.074;4.748;2022-07-24T03:58:39;17.60;1.00
30234;DHT22;17046;52.074;4.748;2022-07-24T04:01:05;17.60;1.00
30234;DHT22;17046;52.074;4.748;2022-07-24T04:03:30;17.50;3.90
30234;DHT22;17046;52.074;4.748;2022-07-24T04:05:56;17.50;1.00
30234;DHT22;17046;52.074;4.748;2022-07-24T04:08:21;17.50;3.60
30234;DHT22;17046;52.074;4.748;2022-07-24T04:10:47;17.50;2.80
30234;DHT22;17046;52.074;4.748;2022-07-24T04:13:13;17.50;2.20
30234;DHT22;17046;52.074;4.748;2022-07-24T04:15:39;17.40;1.00
30234;DHT22;17046;52.074;4.748;2022-07-24T04:18:04;17.50;1.00
30234;DHT22;17046;52.074;4.748;2022-07-24T04:20:30;17.50;1.00
30234;DHT22;17046;52.074;4.748;2022-07-24T04:22:55;17.50;1.00
30234;DHT22;17046;52.074;4.748;2022-07-24T04:25:21;17.50;1.00
30234;DHT22;17046;52.074;4.748;2022-07-24T04:27:47;17.50;1.00
30234;DHT22;17046;52.074;4.748;2022-07-24T04:30:13;17.60;1.00
30234;DHT22;17046;52.074;4.748;2022-07-24T04:32:39;17.60;1.00
30234;DHT22;17046;52.074;4.748;2022-07-24T04:35:05;17.70;1.00
30234;DHT22;17046;52.074;4.748;2022-07-24T04:37:32;17.70;1.00
30234;DHT22;17046;52.074;4.748;2022-07-24T04:39:57;17.80;1.00
30234;DHT22;17046;52.074;4.748;2022-07-24T04:42:23;17.80;1.00
30234;DHT22;17046;52.074;4.748;2022-07-24T04:44:48;17.80;1.00
30234;DHT22;17046;52.074;4.748;2022-07-24T04:47:14;17.80;1.00
30234;DHT22;17046;52.074;4.748;2022-07-24T04:49:40;17.80;1.00
30234;DHT22;17046;52.074;4.748;2022-07-24T04:52:05;17.80;1.00
30234;DHT22;17046;52.074;4.748;2022-07-24T04:54:31;17.90;1.00
30234;DHT22;17046;52.074;4.748;2022-07-24T04:56:56;18.00;1.00
30234;DHT22;17046;52.074;4.748;2022-07-24T04:59:22;18.10;1.00
30234;DHT22;17046;52.074;4.748;2022-07-24T05:01:47;18.10;1.00
30234;DHT22;17046;52.074;4.748;2022-07-24T05:04:13;18.20;1.00
30234;DHT22;17046;52.074;4.748;2022-07-24T05:06:39;18.20;1.00
30234;DHT22;17046;52.074;4.748;2022-07-24T05:09:04;18.20;1.00
30234;DHT22;17046;52.074;4.748;2022-07-24T05:11:30;18.30;1.00
30234;DHT22;17046;52.074;4.748;2022-07-24T05:13:55;19.10;1.00
30234;DHT22;17046;52.074;4.748;2022-07-24T05:16:21;20.70;99.90
30234;DHT22;17046;52.074;4.748;2022-07-24T05:18:46;21.90;1.00
30234;DHT22;17046;52.074;4.748;2022-07-24T05:21:12;23.40;99.90
30234;DHT22;17046;52.074;4.748;2022-07-24T05:23:39;24.60;99.90
30234;DHT22;17046;52.074;4.748;2022-07-24T05:26:05;25.30;99.90
30234;DHT22;17046;52.074;4.748;2022-07-24T05:28:32;26.20;99.90
30234;DHT22;17046;52.074;4.748;2022-07-24T05:30:58;26.90;99.90
30234;DHT22;17046;52.074;4.748;2022-07-24T05:33:24;27.70;99.90
30234;DHT22;17046;52.074;4.748;2022-07-24T05:35:49;27.90;99.90
30234;DHT22;17046;52.074;4.748;2022-07-24T05:38:15;28.10;99.90
30234;DHT22;17046;52.074;4.748;2022-07-24T05:40:41;27.40;99.90
30234;DHT22;17046;52.074;4.748;2022-07-24T05:43:07;28.30;99.90
30234;DHT22;17046;52.074;4.748;2022-07-24T05:45:32;29.10;99.90
30234;DHT22;17046;52.074;4.748;2022-07-24T05:47:58;29.10;99.90
30234;DHT22;17046;52.074;4.748;2022-07-24T05:50:23;30.00;99.90
30234;DHT22;17046;52.074;4.748;2022-07-24T05:52:49;30.70;99.90
30234;DHT22;17046;52.074;4.748;2022-07-24T05:55:15;30.30;99.90
30234;DHT22;17046;52.074;4.748;2022-07-24T05:57:40;30.80;99.90
30234;DHT22;17046;52.074;4.748;2022-07-24T06:00:07;30.80;99.90
30234;DHT22;17046;52.074;4.748;2022-07-24T06:02:33;30.20;99.90
30234;DHT22;17046;52.074;4.748;2022-07-24T06:04:58;29.90;99.90
30234;DHT22;17046;52.074;4.748;2022-07-24T06:07:24;29.60;99.90
30234;DHT22;17046;52.074;4.748;2022-07-24T06:09:49;30.90;99.90
30234;DHT22;17046;52.074;4.748;2022-07-24T06:12:17;30.30;99.90
30234;DHT22;17046;52.074;4.748;2022-07-24T06:14:43;30.20;99.90
30234;DHT22;17046;52.074;4.748;2022-07-24T06:17:09;31.00;99.90
30234;DHT22;17046;52.074;4.748;2022-07-24T06:19:34;30.40;99.90
30234;DHT22;17046;52.074;4.748;2022-07-24T06:22:00;31.00;99.90
30234;DHT22;17046;52.074;4.748;2022-07-24T06:24:25;31.60;99.90
30234;DHT22;17046;52.074;4.748;2022-07-24T06:26:51;31.30;99.90
30234;DHT22;17046;52.074;4.748;2022-07-24T06:29:17;31.10;99.90
30234;DHT22;17046;52.074;4.748;2022-07-24T06:31:42;29.80;99.90
30234;DHT22;17046;52.074;4.748;2022-07-24T06:34:08;28.20;99.90
30234;DHT22;17046;52.074;4.748;2022-07-24T06:36:33;27.90;99.90
30234;DHT22;17046;52.074;4.748;2022-07-24T06:38:59;27.40;99.90
30234;DHT22;17046;52.074;4.748;2022-07-24T06:41:24;28.10;99.90
30234;DHT22;17046;52.074;4.748;2022-07-24T06:43:50;28.30;99.90
30234;DHT22;17046;52.074;4.748;2022-07-24T06:46:15;27.80;99.90
30234;DHT22;17046;52.074;4.748;2022-07-24T06:48:41;28.50;99.90
30234;DHT22;17046;52.074;4.748;2022-07-24T06:51:06;29.10;99.90
30234;DHT22;17046;52.074;4.748;2022-07-24T06:53:32;28.80;99.90
30234;DHT22;17046;52.074;4.748;2022-07-24T06:55:58;27.70;99.90
30234;DHT22;17046;52.074;4.748;2022-07-24T06:58:23;26.60;99.90
30234;DHT22;17046;52.074;4.748;2022-07-24T07:00:49;25.90;99.90
30234;DHT22;17046;52.074;4.748;2022-07-24T07:03:15;25.10;99.90
30234;DHT22;17046;52.074;4.748;2022-07-24T07:05:41;24.50;99.90
30234;DHT22;17046;52.074;4.748;2022-07-24T07:08:06;24.00;99.90
30234;DHT22;17046;52.074;4.748;2022-07-24T07:10:32;23.60;99.90
30234;DHT22;17046;52.074;4.748;2022-07-24T07:12:58;23.50;99.90
30234;DHT22;17046;52.074;4.748;2022-07-24T07:15:23;24.20;99.90
30234;DHT22;17046;52.074;4.748;2022-07-24T07:17:49;26.00;99.90
30234;DHT22;17046;52.074;4.748;2022-07-24T07:20:14;27.40;99.90
30234;DHT22;17046;52.074;4.748;2022-07-24T07:22:41;28.40;99.90
30234;DHT22;17046;52.074;4.748;2022-07-24T07:25:08;29.30;99.90
30234;DHT22;17046;52.074;4.748;2022-07-24T07:27:34;28.10;99.90
30234;DHT22;17046;52.074;4.748;2022-07-24T07:30:01;27.40;99.90
30234;DHT22;17046;52.074;4.748;2022-07-24T07:32:27;27.40;99.90
30234;DHT22;17046;52.074;4.748;2022-07-24T07:34:52;27.10;99.90
30234;DHT22;17046;52.074;4.748;2022-07-24T07:37:18;26.30;99.90
30234;DHT22;17046;52.074;4.748;2022-07-24T07:39:43;25.50;99.90
30234;DHT22;17046;52.074;4.748;2022-07-24T07:42:09;24.90;99.90
30234;DHT22;17046;52.074;4.748;2022-07-24T07:44:35;25.20;99.90
30234;DHT22;17046;52.074;4.748;2022-07-24T07:47:00;25.70;99.90
30234;DHT22;17046;52.074;4.748;2022-07-24T07:49:26;26.20;99.90
30234;DHT22;17046;52.074;4.748;2022-07-24T07:51:51;26.80;99.90
30234;DHT22;17046;52.074;4.748;2022-07-24T07:54:18;27.30;99.90
30234;DHT22;17046;52.074;4.748;2022-07-24T07:56:44;27.30;99.90
30234;DHT22;17046;52.074;4.748;2022-07-24T07:59:09;27.50;99.90
30234;DHT22;17046;52.074;4.748;2022-07-24T08:01:35;28.00;99.90
30234;DHT22;17046;52.074;4.748;2022-07-24T08:04:00;28.20;99.90
30234;DHT22;17046;52.074;4.748;2022-07-24T08:06:26;27.90;99.90
30234;DHT22;17046;52.074;4.748;2022-07-24T08:08:52;27.60;99.90
30234;DHT22;17046;52.074;4.748;2022-07-24T08:11:18;27.80;99.90
30234;DHT22;17046;52.074;4.748;2022-07-24T08:13:43;28.00;99.90
30234;DHT22;17046;52.074;4.748;2022-07-24T08:16:09;28.10;99.90
30234;DHT22;17046;52.074;4.748;2022-07-24T08:18:34;28.60;99.90
30234;DHT22;17046;52.074;4.748;2022-07-24T08:21:00;27.40;99.90
30234;DHT22;17046;52.074;4.748;2022-07-24T08:23:26;26.30;99.90
30234;DHT22;17046;52.074;4.748;2022-07-24T08:25:51;26.10;99.90
30234;DHT22;17046;52.074;4.748;2022-07-24T08:28:17;26.40;99.90
30234;DHT22;17046;52.074;4.748;2022-07-24T08:30:43;26.40;99.90
30234;DHT22;17046;52.074;4.748;2022-07-24T08:33:09;26.70;99.90
30234;DHT22;17046;52.074;4.748;2022-07-24T08:35:34;27.10;99.90
30234;DHT22;17046;52.074;4.748;2022-07-24T08:38:01;27.40;99.90
30234;DHT22;17046;52.074;4.748;2022-07-24T08:40:33;27.20;99.90
30234;DHT22;17046;52.074;4.748;2022-07-24T08:42:59;27.00;99.90
30234;DHT22;17046;52.074;4.748;2022-07-24T08:45:26;27.20;99.90
30234;DHT22;17046;52.074;4.748;2022-07-24T08:47:53;26.70;99.90
30234;DHT22;17046;52.074;4.748;2022-07-24T08:50:20;26.10;99.90
30234;DHT22;17046;52.074;4.748;2022-07-24T08:52:46;26.10;99.90
30234;DHT22;17046;52.074;4.748;2022-07-24T08:55:12;25.90;99.90
30234;DHT22;17046;52.074;4.748;2022-07-24T08:57:38;26.00;99.90
30234;DHT22;17046;52.074;4.748;2022-07-24T09:00:04;25.60;99.90
30234;DHT22;17046;52.074;4.748;2022-07-24T09:02:29;25.90;99.90
30234;DHT22;17046;52.074;4.748;2022-07-24T09:05:00;26.10;99.90
30234;DHT22;17046;52.074;4.748;2022-07-24T09:07:28;26.20;99.90
30234;DHT22;17046;52.074;4.748;2022-07-24T09:10:03;26.40;99.90
30234;DHT22;17046;52.074;4.748;2022-07-24T09:12:34;26.50;99.90
30234;DHT22;17046;52.074;4.748;2022-07-24T09:15:01;26.70;99.90
30234;DHT22;17046;52.074;4.748;2022-07-24T09:17:27;26.70;99.90
30234;DHT22;17046;52.074;4.748;2022-07-24T09:20:00;26.60;99.90
30234;DHT22;17046;52.074;4.748;2022-07-24T09:22:35;26.40;99.90
30234;DHT22;17046;52.074;4.748;2022-07-24T09:25:17;26.30;99.90
30234;DHT22;17046;52.074;4.748;2022-07-24T09:28:03;26.30;99.90
30234;DHT22;17046;52.074;4.748;2022-07-24T09:30:32;26.30;99.90
30234;DHT22;17046;52.074;4.748;2022-07-24T09:35:34;26.30;99.90
30234;DHT22;17046;52.074;4.748;2022-07-24T09:38:02;26.50;99.90
30234;DHT22;17046;52.074;4.748;2022-07-24T09:40:32;26.30;99.90
30234;DHT22;17046;52.074;4.748;2022-07-24T09:48:22;26.40;99.90
30234;DHT22;17046;52.074;4.748;2022-07-24T09:50:53;26.40;99.90
30234;DHT22;17046;52.074;4.748;2022-07-24T09:53:20;26.50;99.90
30234;DHT22;17046;52.074;4.748;2022-07-24T09:56:00;26.70;99.90
30234;DHT22;17046;52.074;4.748;2022-07-24T09:58:26;26.90;99.90
30234;DHT22;17046;52.074;4.748;2022-07-24T10:00:56;27.00;99.90
30234;DHT22;17046;52.074;4.748;2022-07-24T10:03:28;27.00;99.90
30234;DHT22;17046;52.074;4.748;2022-07-24T10:05:56;27.20;99.90
30234;DHT22;17046;52.074;4.748;2022-07-24T10:08:22;27.20;99.90
30234;DHT22;17046;52.074;4.748;2022-07-24T10:10:49;27.30;99.90
30234;DHT22;17046;52.074;4.748;2022-07-24T10:13:15;27.30;99.90
30234;DHT22;17046;52.074;4.748;2022-07-24T10:16:36;27.40;99.90
30234;DHT22;17046;52.074;4.748;2022-07-24T10:21:09;27.30;99.90
30234;DHT22;17046;52.074;4.748;2022-07-24T10:26:35;27.10;99.90
30234;DHT22;17046;52.074;4.748;2022-07-24T10:29:13;26.90;99.90
30234;DHT22;17046;52.074;4.748;2022-07-24T10:31:41;27.00;99.90
30234;DHT22;17046;52.074;4.748;2022-07-24T10:37:57;27.10;99.90
30234;DHT22;17046;52.074;4.748;2022-07-24T10:48:25;27.30;99.90
30234;DHT22;17046;52.074;4.748;2022-07-24T10:53:28;27.30;99.90
30234;DHT22;17046;52.074;4.748;2022-07-24T10:56:55;27.40;99.90
30234;DHT22;17046;52.074;4.748;2022-07-24T10:59:11;27.50;99.90
30234;DHT22;17046;52.074;4.748;2022-07-24T11:01:40;27.50;99.90
30234;DHT22;17046;52.074;4.748;2022-07-24T11:07:11;27.40;99.90
30234;DHT22;17046;52.074;4.748;2022-07-24T11:09:59;27.40;99.90
30234;DHT22;17046;52.074;4.748;2022-07-24T11:12:30;27.50;99.90
30234;DHT22;17046;52.074;4.748;2022-07-24T11:15:03;27.50;99.90
30234;DHT22;17046;52.074;4.748;2022-07-24T11:17:48;27.50;99.90
30234;DHT22;17046;52.074;4.748;2022-07-24T11:20:16;27.50;99.90
30234;DHT22;17046;52.074;4.748;2022-07-24T11:22:54;27.60;99.90
30234;DHT22;17046;52.074;4.748;2022-07-24T11:25:24;27.60;99.90
30234;DHT22;17046;52.074;4.748;2022-07-24T11:27:57;27.60;99.90
30234;DHT22;17046;52.074;4.748;2022-07-24T11:30:27;27.60;99.90
30234;DHT22;17046;52.074;4.748;2022-07-24T11:32:53;27.70;99.90
30234;DHT22;17046;52.074;4.748;2022-07-24T11:35:30;27.90;99.90
30234;DHT22;17046;52.074;4.748;2022-07-24T11:37:58;28.10;99.90
30234;DHT22;17046;52.074;4.748;2022-07-24T11:40:24;28.00;99.90
30234;DHT22;17046;52.074;4.748;2022-07-24T11:42:57;28.00;99.90
30234;DHT22;17046;52.074;4.748;2022-07-24T11:45:23;28.00;99.90
30234;DHT22;17046;52.074;4.748;2022-07-24T11:47:49;27.90;99.90
30234;DHT22;17046;52.074;4.748;2022-07-24T11:50:15;27.80;99.90
30234;DHT22;17046;52.074;4.748;2022-07-24T11:52:41;27.80;99.90
30234;DHT22;17046;52.074;4.748;2022-07-24T11:57:37;27.80;99.90
30234;DHT22;17046;52.074;4.748;2022-07-24T12:00:09;27.80;99.90
30234;DHT22;17046;52.074;4.748;2022-07-24T12:02:37;28.00;99.90
30234;DHT22;17046;52.074;4.748;2022-07-24T12:05:03;28.00;99.90
30234;DHT22;17046;52.074;4.748;2022-07-24T12:07:28;27.90;99.90
30234;DHT22;17046;52.074;4.748;2022-07-24T12:12:29;28.10;99.90
30234;DHT22;17046;52.074;4.748;2022-07-24T12:17:28;28.40;99.90
30234;DHT22;17046;52.074;4.748;2022-07-24T12:19:56;28.40;99.90
30234;DHT22;17046;52.074;4.748;2022-07-24T12:22:24;28.60;99.90
30234;DHT22;17046;52.074;4.748;2022-07-24T12:24:51;28.40;99.90
30234;DHT22;17046;52.074;4.748;2022-07-24T12:27:34;28.50;99.90
30234;DHT22;17046;52.074;4.748;2022-07-24T12:29:59;28.60;99.90
30234;DHT22;17046;52.074;4.748;2022-07-24T12:32:25;28.60;99.90
30234;DHT22;17046;52.074;4.748;2022-07-24T12:34:52;28.60;99.90
30234;DHT22;17046;52.074;4.748;2022-07-24T12:37:22;28.80;99.90
30234;DHT22;17046;52.074;4.748;2022-07-24T12:39:52;28.60;99.90
30234;DHT22;17046;52.074;4.748;2022-07-24T12:42:31;28.70;99.90
30234;DHT22;17046;52.074;4.748;2022-07-24T12:45:06;28.80;99.90
30234;DHT22;17046;52.074;4.748;2022-07-24T12:47:33;28.90;99.90
30234;DHT22;17046;52.074;4.748;2022-07-24T12:50:11;28.80;99.90
30234;DHT22;17046;52.074;4.748;2022-07-24T12:52:37;28.70;99.90
30234;DHT22;17046;52.074;4.748;2022-07-24T12:55:03;29.00;99.90
30234;DHT22;17046;52.074;4.748;2022-07-24T12:57:29;29.00;99.90
30234;DHT22;17046;52.074;4.748;2022-07-24T12:59:59;29.00;99.90
30234;DHT22;17046;52.074;4.748;2022-07-24T13:02:26;28.90;99.90
30234;DHT22;17046;52.074;4.748;2022-07-24T13:04:55;29.00;99.90
30234;DHT22;17046;52.074;4.748;2022-07-24T13:07:23;28.80;99.90
30234;DHT22;17046;52.074;4.748;2022-07-24T13:09:50;28.80;99.90
30234;DHT22;17046;52.074;4.748;2022-07-24T13:12:16;28.90;99.90
30234;DHT22;17046;52.074;4.748;2022-07-24T13:14:43;28.80;99.90
30234;DHT22;17046;52.074;4.748;2022-07-24T13:17:10;29.00;99.90
30234;DHT22;17046;52.074;4.748;2022-07-24T13:19:42;28.90;99.90
30234;DHT22;17046;52.074;4.748;2022-07-24T13:22:08;28.80;99.90
30234;DHT22;17046;52.074;4.748;2022-07-24T13:24:34;28.80;99.90
30234;DHT22;17046;52.074;4.748;2022-07-24T13:27:03;28.70;99.90
30234;DHT22;17046;52.074;4.748;2022-07-24T13:29:29;28.80;99.90
30234;DHT22;17046;52.074;4.748;2022-07-24T13:31:54;28.80;99.90
30234;DHT22;17046;52.074;4.748;2022-07-24T13:34:20;28.80;99.90
30234;DHT22;17046;52.074;4.748;2022-07-24T13:36:46;29.10;99.90
30234;DHT22;17046;52.074;4.748;2022-07-24T13:39:12;29.30;99.90
30234;DHT22;17046;52.074;4.748;2022-07-24T13:41:38;29.40;99.90
30234;DHT22;17046;52.074;4.748;2022-07-24T13:44:05;29.30;99.90
30234;DHT22;17046;52.074;4.748;2022-07-24T13:46:31;29.30;99.90
30234;DHT22;17046;52.074;4.748;2022-07-24T13:49:00;29.40;99.90
30234;DHT22;17046;52.074;4.748;2022-07-24T13:51:25;29.50;99.90
30234;DHT22;17046;52.074;4.748;2022-07-24T13:53:52;29.50;99.90
30234;DHT22;17046;52.074;4.748;2022-07-24T13:56:18;29.70;99.90
30234;DHT22;17046;52.074;4.748;2022-07-24T13:58:43;29.50;99.90
30234;DHT22;17046;52.074;4.748;2022-07-24T14:01:10;29.40;99.90
30234;DHT22;17046;52.074;4.748;2022-07-24T14:03:38;29.50;99.90
30234;DHT22;17046;52.074;4.748;2022-07-24T14:06:05;29.60;99.90
30234;DHT22;17046;52.074;4.748;2022-07-24T14:08:30;29.60;99.90
30234;DHT22;17046;52.074;4.748;2022-07-24T14:10:56;29.70;99.90
30234;DHT22;17046;52.074;4.748;2022-07-24T14:13:21;29.80;99.90
30234;DHT22;17046;52.074;4.748;2022-07-24T14:15:47;29.80;99.90
30234;DHT22;17046;52.074;4.748;2022-07-24T14:18:13;30.00;99.90
30234;DHT22;17046;52.074;4.748;2022-07-24T14:20:39;29.90;99.90
30234;DHT22;17046;52.074;4.748;2022-07-24T14:23:05;29.70;99.90
30234;DHT22;17046;52.074;4.748;2022-07-24T14:25:30;29.70;99.90
30234;DHT22;17046;52.074;4.748;2022-07-24T14:27:56;29.90;99.90
30234;DHT22;17046;52.074;4.748;2022-07-24T14:30:22;29.80;99.90
30234;DHT22;17046;52.074;4.748;2022-07-24T14:32:48;29.90;99.90
30234;DHT22;17046;52.074;4.748;2022-07-24T14:35:13;29.90;99.90
30234;DHT22;17046;52.074;4.748;2022-07-24T14:37:39;30.10;99.90
30234;DHT22;17046;52.074;4.748;2022-07-24T14:40:06;30.10;99.90
30234;DHT22;17046;52.074;4.748;2022-07-24T14:42:33;30.30;99.90
30234;DHT22;17046;52.074;4.748;2022-07-24T14:44:59;30.20;99.90
30234;DHT22;17046;52.074;4.748;2022-07-24T14:47:25;30.40;99.90
30234;DHT22;17046;52.074;4.748;2022-07-24T14:49:51;30.40;99.90
30234;DHT22;17046;52.074;4.748;2022-07-24T14:52:17;30.40;99.90
30234;DHT22;17046;52.074;4.748;2022-07-24T14:54:45;30.30;99.90
30234;DHT22;17046;52.074;4.748;2022-07-24T14:57:12;30.40;99.90
30234;DHT22;17046;52.074;4.748;2022-07-24T14:59:37;30.20;99.90
30234;DHT22;17046;52.074;4.748;2022-07-24T15:02:03;29.80;99.90
30234;DHT22;17046;52.074;4.748;2022-07-24T15:04:29;29.90;99.90
30234;DHT22;17046;52.074;4.748;2022-07-24T15:06:54;29.70;99.90
30234;DHT22;17046;52.074;4.748;2022-07-24T15:09:20;29.70;99.90
30234;DHT22;17046;52.074;4.748;2022-07-24T15:11:46;29.70;99.90
30234;DHT22;17046;52.074;4.748;2022-07-24T15:14:11;29.80;99.90
30234;DHT22;17046;52.074;4.748;2022-07-24T15:16:37;29.90;99.90
30234;DHT22;17046;52.074;4.748;2022-07-24T15:19:03;29.90;99.90
30234;DHT22;17046;52.074;4.748;2022-07-24T15:21:29;29.90;99.90
30234;DHT22;17046;52.074;4.748;2022-07-24T15:23:54;30.00;99.90
30234;DHT22;17046;52.074;4.748;2022-07-24T15:26:20;29.90;99.90
30234;DHT22;17046;52.074;4.748;2022-07-24T15:28:45;30.00;99.90
30234;DHT22;17046;52.074;4.748;2022-07-24T15:31:11;30.10;99.90
30234;DHT22;17046;52.074;4.748;2022-07-24T15:33:37;30.30;99.90
30234;DHT22;17046;52.074;4.748;2022-07-24T15:36:03;30.50;99.90
30234;DHT22;17046;52.074;4.748;2022-07-24T15:38:29;30.80;99.90
30234;DHT22;17046;52.074;4.748;2022-07-24T15:40:54;30.90;99.90
30234;DHT22;17046;52.074;4.748;2022-07-24T15:43:20;30.90;99.90
30234;DHT22;17046;52.074;4.748;2022-07-24T15:45:46;31.00;99.90
30234;DHT22;17046;52.074;4.748;2022-07-24T15:48:11;31.10;99.90
30234;DHT22;17046;52.074;4.748;2022-07-24T15:50:37;31.10;99.90
30234;DHT22;17046;52.074;4.748;2022-07-24T15:53:02;31.20;99.90
30234;DHT22;17046;52.074;4.748;2022-07-24T15:55:28;31.30;99.90
30234;DHT22;17046;52.074;4.748;2022-07-24T15:57:54;31.40;99.90
30234;DHT22;17046;52.074;4.748;2022-07-24T16:00:19;31.50;99.90
30234;DHT22;17046;52.074;4.748;2022-07-24T16:02:45;31.50;99.90
30234;DHT22;17046;52.074;4.748;2022-07-24T16:05:10;31.40;99.90
30234;DHT22;17046;52.074;4.748;2022-07-24T16:07:36;31.20;99.90
30234;DHT22;17046;52.074;4.748;2022-07-24T16:10:03;31.30;99.90
30234;DHT22;17046;52.074;4.748;2022-07-24T16:12:29;31.30;99.90